Time;durP1;ratioP1;P1;durP2;ratioP2;P2;SDS_P1;SDS_P2;PMS_P1;PMS_P2;Temp;Humidity;BMP_temperature;BMP_pressure;BME280_temperature;BME280_humidity;BME280_pressure;Samples;Min_cycle;Max_cycle;Signal;HPM_P1;HPM_P2
2023/01/30 00:01:17;;;;;;;;;36.25;29.75;;;;;7.83;63.24;102299.19;5091603;27;45377;-66
2023/01/30 00:03:43;;;;;;;;;25.75;24.00;;;;;7.83;63.71;102299.19;5071501;27;45306;-66
2023/01/30 00:06:09;;;;;;;;;27.25;25.50;;;;;7.86;63.71;102296.53;5064476;27;45350;-66
2023/01/30 00:08:34;;;;;;;;;34.25;26.75;;;;;7.80;63.78;102289.41;5072297;27;45406;-66
2023/01/30 00:11:08;;;;;;;;;25.50;23.75;;;;;7.80;63.59;102292.06;5079273;28;46867;-66
2023/01/30 00:13:33;;;;;;;;;32.75;30.00;;;;;7.78;63.66;102292.09;5074090;27;45737;-66
2023/01/30 00:15:59;;;;;;;;;31.50;26.50;;;;;7.86;63.67;102307.19;5077718;28;45427;-66
2023/01/30 00:18:24;;;;;;;;;31.00;28.25;;;;;7.85;63.48;102300.97;5078198;27;45639;-66
2023/01/30 00:20:58;;;;;;;;;23.00;21.00;;;;;7.85;63.93;102286.78;5064407;28;45680;-66
2023/01/30 00:23:24;;;;;;;;;24.75;21.50;;;;;7.87;63.78;102293.88;5071313;27;45786;-66
2023/01/30 00:25:50;;;;;;;;;31.75;27.50;;;;;7.88;63.71;102292.09;5062071;27;45323;-66
2023/01/30 00:28:15;;;;;;;;;36.25;32.25;;;;;7.83;63.73;102269.94;5068457;27;45361;-66
2023/01/30 00:30:41;;;;;;;;;31.50;27.00;;;;;7.82;63.56;102284.09;5062566;27;45741;-66
2023/01/30 00:33:06;;;;;;;;;29.75;25.00;;;;;7.78;63.84;102275.22;5067233;27;45424;-66
2023/01/30 00:35:31;;;;;;;;;34.25;29.25;;;;;7.72;63.99;102269.91;5079040;28;45345;-66
2023/01/30 00:37:57;;;;;;;;;37.00;28.25;;;;;7.67;63.90;102261.91;5072587;27;45698;-66
2023/01/30 00:40:25;;;;;;;;;25.25;25.25;;;;;7.66;63.83;102261.91;5063428;28;46187;-66
2023/01/30 00:48:21;;;;;;;;;37.75;27.75;;;;;7.61;64.31;102248.59;5072593;27;45680;-66
2023/01/30 00:50:47;;;;;;;;;33.25;30.75;;;;;7.67;63.97;102248.63;5074587;27;46298;-66
2023/01/30 00:53:14;;;;;;;;;37.75;34.75;;;;;7.66;64.32;102244.19;5078932;27;45469;-66
2023/01/30 00:55:40;;;;;;;;;36.75;29.75;;;;;7.53;64.03;102224.63;5071974;28;45420;-66
2023/01/30 00:58:05;;;;;;;;;34.50;28.25;;;;;7.52;64.63;102229.97;5070906;27;45504;-66
2023/01/30 01:00:31;;;;;;;;;32.25;31.25;;;;;7.54;64.42;102230.84;5072512;27;45426;-66
2023/01/30 01:02:57;;;;;;;;;34.25;29.75;;;;;7.52;64.29;102228.19;5063218;27;45776;-66
2023/01/30 01:05:22;;;;;;;;;29.75;29.75;;;;;7.48;64.57;102214.88;5072780;27;45326;-66
2023/01/30 01:07:48;;;;;;;;;30.25;25.75;;;;;7.49;64.66;102219.31;5061578;27;45449;-66
2023/01/30 01:10:15;;;;;;;;;35.00;30.75;;;;;7.48;64.77;102217.53;5058699;28;45434;-66
2023/01/30 01:12:44;;;;;;;;;26.25;23.50;;;;;7.53;64.55;102223.75;5068009;27;45803;-66
2023/01/30 01:15:13;;;;;;;;;30.75;27.00;;;;;7.53;64.79;102221.09;5062446;28;45425;-66
2023/01/30 01:17:40;;;;;;;;;31.00;27.00;;;;;7.51;64.75;102214.91;5073203;27;45365;-66
2023/01/30 01:20:08;;;;;;;;;30.75;30.00;;;;;7.51;64.52;102206.91;5077368;27;45659;-66
2023/01/30 01:22:33;;;;;;;;;34.50;27.50;;;;;7.48;64.68;102213.09;5071059;27;45409;-66
2023/01/30 01:24:58;;;;;;;;;27.00;21.25;;;;;7.40;64.47;102188.25;5065917;28;45484;-66
2023/01/30 01:27:24;;;;;;;;;31.50;30.00;;;;;7.39;64.75;102187.38;5089481;27;45334;-66
2023/01/30 01:29:49;;;;;;;;;30.50;25.75;;;;;7.46;64.89;102196.28;5077113;27;45369;-66
2023/01/30 01:32:14;;;;;;;;;29.50;26.25;;;;;7.41;64.93;102185.63;5068156;28;45473;-66
2023/01/30 01:34:40;;;;;;;;;30.25;27.50;;;;;7.45;64.89;102190.94;5074535;27;45596;-66
2023/01/30 01:37:05;;;;;;;;;26.25;22.25;;;;;7.44;64.81;102179.44;5073529;28;45578;-66
2023/01/30 01:42:15;;;;;;;;;31.25;26.50;;;;;7.54;64.59;102193.66;5076615;28;45432;-66
2023/01/30 01:45:10;;;;;;;;;27.25;26.50;;;;;7.55;64.70;102192.75;5072543;27;45485;-66
2023/01/30 01:47:37;;;;;;;;;35.50;29.75;;;;;7.54;64.54;102193.66;5072040;28;45572;-66
2023/01/30 01:50:04;;;;;;;;;31.50;31.50;;;;;7.54;64.43;102185.69;5077752;27;45518;-66
2023/01/30 01:52:30;;;;;;;;;30.75;29.00;;;;;7.55;64.68;102183.03;5062057;27;45351;-66
2023/01/30 01:55:03;;;;;;;;;28.75;27.25;;;;;7.49;64.69;102156.44;5087294;27;45440;-66
2023/01/30 01:57:51;;;;;;;;;24.50;24.50;;;;;7.59;64.62;102194.56;5075740;27;45764;-66
2023/01/30 02:00:19;;;;;;;;;34.50;29.00;;;;;7.58;64.62;102184.78;5060895;27;46238;-66
2023/01/30 02:02:50;;;;;;;;;35.25;30.25;;;;;7.56;64.57;102197.19;5073158;28;45492;-66
2023/01/30 02:05:17;;;;;;;;;27.75;25.75;;;;;7.56;64.97;102194.53;5074710;28;45314;-66
2023/01/30 02:07:57;;;;;;;;;29.50;25.50;;;;;7.53;64.33;102181.22;5060898;28;45326;-66
2023/01/30 02:10:31;;;;;;;;;40.75;29.25;;;;;7.49;64.41;102176.81;5074295;28;45528;-66
2023/01/30 02:12:56;;;;;;;;;24.25;20.50;;;;;7.52;64.90;102190.09;5062032;27;45770;-66
2023/01/30 02:15:21;;;;;;;;;24.00;24.00;;;;;7.51;64.46;102189.19;5078258;27;45428;-66
2023/01/30 02:17:47;;;;;;;;;29.50;28.75;;;;;7.52;64.67;102196.31;5076209;28;46938;-66
2023/01/30 02:20:49;;;;;;;;;30.00;21.25;;;;;7.55;64.90;102190.09;5078985;27;46905;-66
2023/01/30 02:23:34;;;;;;;;;32.00;27.25;;;;;7.53;64.55;102187.44;5073334;27;45445;-66
2023/01/30 02:26:02;;;;;;;;;33.00;29.50;;;;;7.52;64.08;102185.66;5074728;27;45613;-66
2023/01/30 02:28:50;;;;;;;;;31.50;26.25;;;;;7.51;64.73;102175.03;5079603;27;45897;-66
2023/01/30 02:31:26;;;;;;;;;33.25;28.75;;;;;7.52;64.73;102168.84;5067091;27;45338;-66
2023/01/30 02:33:56;;;;;;;;;31.50;26.00;;;;;7.50;64.75;102166.19;5078368;27;45850;-66
2023/01/30 02:36:35;;;;;;;;;32.75;31.00;;;;;7.51;64.76;102167.94;5076480;27;45514;-66
2023/01/30 02:39:26;;;;;;;;;30.75;27.00;;;;;7.48;64.18;102167.06;5078782;27;45481;-66
2023/01/30 02:42:18;;;;;;;;;29.75;27.25;;;;;7.50;64.55;102167.94;5068398;27;45950;-66
2023/01/30 02:44:54;;;;;;;;;30.00;28.50;;;;;7.52;64.68;102158.22;5067625;27;45401;-66
2023/01/30 02:47:27;;;;;;;;;28.50;26.00;;;;;7.48;64.69;102161.72;5072658;28;45442;-66
2023/01/30 02:50:01;;;;;;;;;31.75;26.50;;;;;7.48;64.94;102159.06;5074630;27;45345;-66
2023/01/30 02:52:28;;;;;;;;;30.75;26.00;;;;;7.52;64.62;102159.09;5073947;27;46151;-66
2023/01/30 02:54:54;;;;;;;;;29.00;27.00;;;;;7.55;64.38;102169.75;5078181;27;45886;-66
2023/01/30 02:57:21;;;;;;;;;28.25;26.00;;;;;7.57;64.64;102178.59;5072113;27;45455;-66
2023/01/30 02:59:55;;;;;;;;;28.25;23.75;;;;;7.59;64.74;102167.97;5094922;27;45814;-66
2023/01/30 03:02:39;;;;;;;;;27.50;25.25;;;;;7.63;64.45;102174.19;5060237;28;45505;-66
2023/01/30 03:05:27;;;;;;;;;22.25;20.50;;;;;7.59;64.37;102166.19;5075567;27;45516;-66
2023/01/30 03:08:07;;;;;;;;;25.00;23.00;;;;;7.67;64.39;102182.19;5066997;27;45616;-66
2023/01/30 03:10:32;;;;;;;;;26.25;24.75;;;;;7.70;64.29;102182.19;5079583;27;45260;-66
2023/01/30 03:13:01;;;;;;;;;24.25;23.00;;;;;7.69;64.49;102177.75;5065150;28;45348;-66
2023/01/30 03:15:34;;;;;;;;;30.50;28.75;;;;;7.70;64.39;102170.66;5075382;27;45686;-66
2023/01/30 03:18:01;;;;;;;;;29.50;22.75;;;;;7.66;64.43;102164.44;5071504;27;45536;-66
2023/01/30 03:20:26;;;;;;;;;30.50;24.25;;;;;7.62;64.32;102165.34;5072409;27;45516;-66
2023/01/30 03:22:53;;;;;;;;;35.75;29.00;;;;;7.68;64.32;102186.59;5073108;27;46109;-66
2023/01/30 03:25:22;;;;;;;;;28.25;25.50;;;;;7.64;64.47;102179.50;5078496;27;45778;-66
2023/01/30 03:27:50;;;;;;;;;31.50;27.00;;;;;7.68;64.51;102183.06;5069812;27;45343;-66
2023/01/30 03:30:16;;;;;;;;;23.50;21.50;;;;;7.70;64.48;102175.97;5075859;27;45547;-66
2023/01/30 03:32:41;;;;;;;;;29.00;24.25;;;;;7.75;64.47;102175.13;5068584;27;45980;-66
2023/01/30 03:35:08;;;;;;;;;32.00;27.50;;;;;7.74;64.53;102170.66;5072750;27;45847;-66
2023/01/30 03:37:34;;;;;;;;;30.25;28.00;;;;;7.75;65.07;102177.78;5080130;27;45437;-66
2023/01/30 03:39:59;;;;;;;;;29.75;28.00;;;;;7.76;64.66;102174.22;5074816;27;45423;-66
2023/01/30 03:42:24;;;;;;;;;23.50;22.50;;;;;7.70;64.94;102162.69;5072812;27;45468;-66
2023/01/30 03:44:50;;;;;;;;;28.00;24.25;;;;;7.75;64.58;102167.13;5070647;27;45537;-66
2023/01/30 03:47:15;;;;;;;;;22.75;17.75;;;;;7.76;65.00;102168.88;5077030;28;45402;-66
2023/01/30 03:49:40;;;;;;;;;25.50;23.25;;;;;7.78;64.88;102171.56;5068413;27;45491;-66
2023/01/30 03:52:06;;;;;;;;;19.25;18.00;;;;;7.73;65.24;102158.25;5070921;28;45581;-66
2023/01/30 03:54:31;;;;;;;;;26.50;22.75;;;;;7.72;65.10;102145.84;5078969;27;45516;-66
2023/01/30 03:56:56;;;;;;;;;23.50;20.75;;;;;7.76;65.08;102147.63;5078197;28;45367;-66
2023/01/30 03:59:22;;;;;;;;;26.75;24.50;;;;;7.71;65.25;102132.56;5079585;27;45313;-66
2023/01/30 04:01:47;;;;;;;;;22.50;21.25;;;;;7.81;65.28;102154.75;5078189;27;45513;-66
2023/01/30 04:04:13;;;;;;;;;25.50;24.50;;;;;7.81;65.07;102150.28;5069263;27;45390;-66
2023/01/30 04:06:38;;;;;;;;;31.25;26.50;;;;;7.76;65.40;102133.47;5070846;28;45435;-66
2023/01/30 04:09:03;;;;;;;;;32.50;26.75;;;;;7.78;65.23;102129.03;5062892;27;45343;-66
2023/01/30 04:11:29;;;;;;;;;29.25;23.00;;;;;7.75;65.25;102129.91;5070348;28;46398;-66
2023/01/30 04:13:54;;;;;;;;;28.25;26.25;;;;;7.75;65.63;102129.91;5072939;27;45470;-65
2023/01/30 04:16:22;;;;;;;;;24.50;22.75;;;;;7.83;65.62;102129.03;5065976;27;45444;-66
2023/01/30 04:18:47;;;;;;;;;27.50;23.25;;;;;7.82;65.26;102132.56;5080868;27;45384;-66
2023/01/30 04:21:14;;;;;;;;;26.25;21.75;;;;;7.83;65.06;102135.22;5072188;27;46246;-66
2023/01/30 04:23:40;;;;;;;;;31.25;24.00;;;;;7.85;64.77;102140.56;5074331;27;45710;-66
2023/01/30 04:26:06;;;;;;;;;27.00;26.00;;;;;7.86;65.32;102137.03;5078870;27;45324;-66
2023/01/30 04:28:32;;;;;;;;;26.00;22.50;;;;;7.80;65.03;102129.91;5060785;27;45248;-66
2023/01/30 04:30:57;;;;;;;;;31.00;25.25;;;;;7.82;65.26;102129.91;5076246;27;46075;-66
2023/01/30 04:33:22;;;;;;;;;28.75;24.25;;;;;7.82;65.18;102129.91;5074146;28;45373;-66
2023/01/30 04:35:56;;;;;;;;;26.75;23.25;;;;;7.80;65.38;102124.59;5071779;27;45470;-66
2023/01/30 04:38:22;;;;;;;;;30.00;21.50;;;;;7.84;65.11;102122.84;5073214;27;45372;-66
2023/01/30 04:40:49;;;;;;;;;26.50;23.00;;;;;7.82;65.12;102109.56;5075248;27;45303;-66
2023/01/30 04:43:15;;;;;;;;;30.50;25.50;;;;;7.76;65.44;102112.19;5068069;28;45480;-66
2023/01/30 04:45:45;;;;;;;;;29.00;25.00;;;;;7.80;65.51;102108.63;5071369;27;45535;-66
2023/01/30 04:48:10;;;;;;;;;33.50;28.25;;;;;7.79;65.35;102106.88;5078987;28;45369;-66
2023/01/30 04:50:35;;;;;;;;;25.25;23.50;;;;;7.81;65.57;102117.53;5073188;27;45598;-66
2023/01/30 04:53:01;;;;;;;;;28.75;25.25;;;;;7.81;65.42;102112.22;5061403;28;45446;-66
2023/01/30 04:55:26;;;;;;;;;24.25;20.25;;;;;7.77;65.17;102111.31;5078532;27;45791;-66
2023/01/30 04:57:51;;;;;;;;;26.00;22.50;;;;;7.79;65.58;102120.19;5065143;28;45409;-66
2023/01/30 05:00:17;;;;;;;;;25.00;22.25;;;;;7.70;65.83;102109.50;5073595;27;45323;-66
2023/01/30 05:02:42;;;;;;;;;24.50;24.25;;;;;7.75;65.56;102110.41;5047324;28;45448;-66
2023/01/30 05:05:08;;;;;;;;;10.50;10.00;;;;;7.72;65.77;102103.34;5082542;27;45755;-66
2023/01/30 05:07:34;;;;;;;;;28.25;23.75;;;;;7.80;65.88;102119.28;5065185;27;45381;-66
2023/01/30 05:09:59;;;;;;;;;22.50;21.75;;;;;7.75;65.46;102110.41;5066082;27;45536;-66
2023/01/30 05:12:24;;;;;;;;;26.50;24.25;;;;;7.80;65.93;102116.63;5065273;27;45371;-66
2023/01/30 05:14:49;;;;;;;;;26.50;23.25;;;;;7.74;66.04;102113.97;5065979;27;45373;-66
2023/01/30 05:17:15;;;;;;;;;29.00;26.75;;;;;7.75;66.05;102119.28;5074781;28;45466;-66
2023/01/30 05:19:40;;;;;;;;;32.25;28.50;;;;;7.75;66.11;102105.09;5078407;27;45465;-66
2023/01/30 05:22:05;;;;;;;;;24.00;22.50;;;;;7.70;66.32;102110.44;5071446;27;45496;-66
2023/01/30 05:24:31;;;;;;;;;29.00;26.25;;;;;7.74;66.51;102122.81;5078870;27;45456;-66
2023/01/30 05:26:56;;;;;;;;;27.50;25.25;;;;;7.72;66.50;102119.28;5073706;27;45480;-66
2023/01/30 05:29:22;;;;;;;;;30.75;29.75;;;;;7.77;66.38;102124.59;5078477;27;46651;-66
2023/01/30 05:31:47;;;;;;;;;25.50;22.25;;;;;7.75;66.52;102113.06;5073868;28;45456;-66
2023/01/30 05:34:12;;;;;;;;;27.00;22.00;;;;;7.76;66.78;102120.16;5086272;27;45395;-66
2023/01/30 05:36:37;;;;;;;;;26.75;26.50;;;;;7.77;66.56;102116.63;5081862;27;45387;-66
2023/01/30 05:39:03;;;;;;;;;34.25;29.50;;;;;7.75;66.80;102113.97;5077229;28;46079;-66
2023/01/30 05:41:29;;;;;;;;;32.25;27.00;;;;;7.67;67.12;102099.78;5073769;27;45374;-66
2023/01/30 05:43:54;;;;;;;;;28.50;25.75;;;;;7.75;66.72;102113.06;5066457;27;45551;-66
2023/01/30 05:46:20;;;;;;;;;26.25;23.25;;;;;7.71;66.80;102106.88;5063112;27;45496;-66
2023/01/30 05:48:45;;;;;;;;;28.75;19.25;;;;;7.63;66.64;102081.16;5078592;27;45368;-66
2023/01/30 05:51:19;;;;;;;;;26.75;22.00;;;;;7.65;66.67;102077.66;5074789;27;45322;-66
2023/01/30 05:53:44;;;;;;;;;32.00;26.50;;;;;7.72;67.04;102106.00;5076707;27;45441;-66
2023/01/30 05:56:10;;;;;;;;;35.00;30.00;;;;;7.68;66.99;102092.69;5078425;27;45449;-66
2023/01/30 05:58:35;;;;;;;;;27.50;25.50;;;;;7.76;66.94;102107.75;5073172;27;45990;-66
2023/01/30 06:01:03;;;;;;;;;27.00;24.75;;;;;7.76;66.89;102105.09;5073376;27;45294;-66
2023/01/30 06:03:29;;;;;;;;;27.75;23.25;;;;;7.75;66.99;102086.47;5081163;28;45393;-66
2023/01/30 06:05:54;;;;;;;;;27.75;27.75;;;;;7.75;67.03;102087.38;5078560;27;45339;-66
2023/01/30 06:08:19;;;;;;;;;30.25;25.50;;;;;7.76;67.51;102089.16;5079422;28;47789;-66
2023/01/30 06:10:45;;;;;;;;;23.25;20.75;;;;;7.78;67.76;102094.47;5081264;27;45584;-66
2023/01/30 06:13:10;;;;;;;;;31.25;22.75;;;;;7.72;68.02;102083.84;5072897;27;45382;-66
2023/01/30 06:15:36;;;;;;;;;27.00;25.50;;;;;7.77;67.79;102090.06;5078692;27;45337;-66
2023/01/30 06:18:01;;;;;;;;;26.50;23.00;;;;;7.76;67.95;102088.28;5066557;27;46047;-66
2023/01/30 06:20:27;;;;;;;;;25.00;22.00;;;;;7.74;68.04;102084.72;5068788;27;45644;-66
2023/01/30 06:22:52;;;;;;;;;23.50;20.25;;;;;7.79;68.15;102082.97;5076983;27;45508;-66
2023/01/30 06:25:18;;;;;;;;;23.00;19.25;;;;;7.72;68.17;102055.50;5076855;27;45369;-66
2023/01/30 06:27:45;;;;;;;;;21.00;21.00;;;;;7.69;67.84;102042.19;5066187;27;45446;-66
2023/01/30 06:30:11;;;;;;;;;22.75;20.25;;;;;7.79;68.43;102067.00;5064511;27;45271;-67
2023/01/30 06:32:36;;;;;;;;;22.00;22.00;;;;;7.75;68.06;102066.13;5068178;28;45542;-66
2023/01/30 06:35:01;;;;;;;;;25.50;24.00;;;;;7.80;68.02;102066.09;5070526;27;45298;-66
2023/01/30 06:37:27;;;;;;;;;18.00;16.50;;;;;7.81;68.33;102067.00;5072614;28;47244;-66
2023/01/30 06:39:52;;;;;;;;;22.25;18.50;;;;;7.84;68.12;102086.50;5062889;27;45520;-66
2023/01/30 06:42:17;;;;;;;;;29.00;25.25;;;;;7.79;68.15;102089.16;5072510;28;45427;-66
2023/01/30 06:44:42;;;;;;;;;24.25;21.75;;;;;7.85;68.01;102103.34;5071930;27;45562;-66
2023/01/30 06:47:08;;;;;;;;;24.00;22.00;;;;;7.81;68.20;102090.94;5075849;27;45411;-66
2023/01/30 06:49:33;;;;;;;;;21.75;20.75;;;;;7.87;68.29;102109.53;5063881;27;45339;-67
2023/01/30 06:51:58;;;;;;;;;22.25;21.25;;;;;7.87;68.45;102117.50;5079077;27;45357;-70
2023/01/30 06:54:24;;;;;;;;;17.00;16.50;;;;;7.82;68.31;102111.28;5066311;27;45471;-73
2023/01/30 06:56:49;;;;;;;;;25.00;23.00;;;;;7.90;68.06;102138.78;5070172;27;45998;-73
2023/01/30 06:59:14;;;;;;;;;22.50;17.75;;;;;7.94;68.49;102132.59;5072021;28;45424;-73
2023/01/30 07:01:40;;;;;;;;;22.00;18.50;;;;;7.90;68.29;102122.81;5075169;27;45665;-73
2023/01/30 07:04:05;;;;;;;;;16.00;14.50;;;;;7.92;68.59;102134.38;5069373;28;45648;-73
2023/01/30 07:06:31;;;;;;;;;20.75;16.50;;;;;8.01;68.47;102141.47;5070071;27;46007;-72
2023/01/30 07:08:57;;;;;;;;;28.75;20.75;;;;;7.92;68.41;102132.59;5083021;27;45390;-73
2023/01/30 07:11:23;;;;;;;;;26.00;21.00;;;;;7.95;68.60;102132.59;5081565;27;47125;-75
2023/01/30 07:13:48;;;;;;;;;17.00;16.75;;;;;7.97;68.63;102146.78;5075804;28;46206;-73
2023/01/30 07:16:14;;;;;;;;;22.25;21.25;;;;;8.00;68.67;102147.66;5068210;27;46971;-73
2023/01/30 07:18:39;;;;;;;;;17.75;15.50;;;;;7.97;68.95;102148.56;5078644;28;45434;-73
2023/01/30 07:21:05;;;;;;;;;20.75;18.00;;;;;7.94;68.78;102146.78;5072229;27;45751;-74
2023/01/30 07:23:30;;;;;;;;;21.50;19.25;;;;;8.05;68.76;102156.53;5067257;28;45571;-67
2023/01/30 07:25:55;;;;;;;;;22.50;19.50;;;;;8.02;69.02;102144.13;5073832;27;48026;-66
2023/01/30 07:28:20;;;;;;;;;24.00;22.00;;;;;8.04;69.04;102145.00;5069839;28;45290;-67
2023/01/30 07:30:46;;;;;;;;;23.75;21.25;;;;;8.08;68.91;102160.06;5062000;27;45540;-68
2023/01/30 07:33:11;;;;;;;;;16.00;16.00;;;;;8.05;69.03;102161.84;5069588;28;45367;-67
2023/01/30 07:35:37;;;;;;;;;21.00;18.50;;;;;8.06;69.11;102164.50;5075948;27;45357;-68
2023/01/30 07:38:03;;;;;;;;;20.25;19.75;;;;;8.13;69.07;102171.59;5059152;28;45312;-67
2023/01/30 07:40:28;;;;;;;;;23.75;19.25;;;;;8.14;69.27;102176.03;5074348;27;45377;-68
2023/01/30 07:43:06;;;;;;;;;19.50;17.00;;;;;8.18;68.87;102176.94;5073148;28;45676;-68
2023/01/30 07:45:38;;;;;;;;;19.75;19.50;;;;;8.19;69.29;102177.84;5077770;27;46092;-68
2023/01/30 07:48:05;;;;;;;;;19.50;16.50;;;;;8.21;69.11;102173.41;5062528;27;45607;-68
2023/01/30 07:50:30;;;;;;;;;21.50;18.50;;;;;8.22;69.31;102175.16;5068128;27;45573;-68
2023/01/30 07:52:55;;;;;;;;;24.00;21.00;;;;;8.21;69.34;102163.63;5078109;28;45376;-67
2023/01/30 07:55:21;;;;;;;;;18.00;17.50;;;;;8.19;69.46;102161.88;5075803;27;46760;-67
2023/01/30 07:57:46;;;;;;;;;23.25;20.25;;;;;8.21;69.57;102165.41;5068852;27;45420;-65
2023/01/30 08:00:13;;;;;;;;;23.00;20.50;;;;;8.22;69.74;102165.41;5065434;27;45684;-65
2023/01/30 08:02:38;;;;;;;;;22.75;19.50;;;;;8.15;69.73;102168.94;5063173;27;45600;-66
2023/01/30 08:05:04;;;;;;;;;27.50;23.75;;;;;8.24;69.90;102171.63;5073488;28;45549;-66
2023/01/30 08:07:29;;;;;;;;;26.75;20.00;;;;;8.22;70.07;102165.41;5064907;27;45596;-65
2023/01/30 08:09:54;;;;;;;;;20.50;19.75;;;;;8.24;69.95;102168.97;5076692;28;45397;-65
2023/01/30 08:12:20;;;;;;;;;22.25;21.25;;;;;8.27;70.43;102168.97;5073257;27;45275;-65
2023/01/30 08:14:45;;;;;;;;;20.00;18.25;;;;;8.25;70.09;102172.50;5069947;27;45425;-65
2023/01/30 08:17:10;;;;;;;;;20.00;17.00;;;;;8.29;70.58;102174.28;5066449;27;45487;-66
2023/01/30 08:19:35;;;;;;;;;24.00;23.00;;;;;8.28;70.24;102162.72;5074103;27;45310;-65
2023/01/30 08:22:01;;;;;;;;;25.50;18.50;;;;;8.31;70.38;102168.06;5077303;27;45482;-66
2023/01/30 08:24:26;;;;;;;;;20.25;17.50;;;;;8.34;70.19;102159.22;5077094;27;45423;-65
2023/01/30 08:26:53;;;;;;;;;20.50;17.00;;;;;8.34;70.69;102172.50;5076724;27;45347;-66
2023/01/30 08:29:18;;;;;;;;;18.50;18.25;;;;;8.33;70.40;102163.63;5070795;28;45402;-66
2023/01/30 08:31:43;;;;;;;;;23.50;18.50;;;;;8.37;70.74;102176.94;5070104;27;45627;-66
2023/01/30 08:34:09;;;;;;;;;24.00;20.50;;;;;8.39;70.46;102183.16;5064735;27;45418;-65
2023/01/30 08:36:34;;;;;;;;;21.25;19.00;;;;;8.36;70.60;102184.03;5077000;27;45603;-66
2023/01/30 08:38:59;;;;;;;;;24.00;22.00;;;;;8.39;70.37;102180.50;5072463;27;45302;-65
2023/01/30 08:41:27;;;;;;;;;21.00;18.00;;;;;8.37;70.62;102176.94;5079293;27;45759;-66
2023/01/30 08:43:52;;;;;;;;;29.00;25.50;;;;;8.35;70.91;102180.50;5067492;28;45522;-66
2023/01/30 08:46:20;;;;;;;;;22.25;21.75;;;;;8.36;70.63;102184.03;5075125;27;45466;-65
2023/01/30 08:48:46;;;;;;;;;18.00;17.00;;;;;8.40;71.05;102188.44;5076863;27;45363;-65
2023/01/30 08:51:11;;;;;;;;;22.50;20.25;;;;;8.39;70.88;102181.38;5077891;27;45591;-66
2023/01/30 08:53:37;;;;;;;;;14.00;14.00;;;;;8.37;70.71;102180.50;5076525;27;46133;-66
2023/01/30 08:56:02;;;;;;;;;19.75;18.00;;;;;8.41;71.24;102184.03;5076669;27;45496;-66
2023/01/30 08:58:27;;;;;;;;;19.00;19.00;;;;;8.42;70.98;102188.44;5070184;27;45832;-66
2023/01/30 09:00:53;;;;;;;;;18.75;17.00;;;;;8.36;70.75;102184.03;5074765;27;45582;-66
2023/01/30 09:03:18;;;;;;;;;18.75;18.50;;;;;8.43;70.61;102196.47;5076578;27;45413;-66
2023/01/30 09:05:44;;;;;;;;;19.25;19.00;;;;;8.47;71.07;102203.59;5083926;27;45415;-66
2023/01/30 09:08:09;;;;;;;;;24.50;19.25;;;;;8.50;71.12;102213.31;5080188;27;45449;-65
2023/01/30 09:10:35;;;;;;;;;24.50;22.25;;;;;8.47;70.81;102208.91;5072243;28;45687;-66
2023/01/30 09:13:01;;;;;;;;;25.25;23.00;;;;;8.48;71.10;102205.34;5078384;27;45476;-65
2023/01/30 09:15:26;;;;;;;;;23.50;16.00;;;;;8.52;70.79;102206.25;5073331;28;45544;-66
2023/01/30 09:17:52;;;;;;;;;20.75;16.75;;;;;8.52;70.92;102200.94;5080440;27;45406;-65
2023/01/30 09:20:19;;;;;;;;;14.50;14.50;;;;;8.55;70.73;102203.56;5081496;27;45585;-66
2023/01/30 09:22:45;;;;;;;;;17.75;16.75;;;;;8.60;70.94;102212.44;5070279;27;48018;-66
2023/01/30 09:25:10;;;;;;;;;19.00;17.00;;;;;8.62;71.13;102208.00;5078890;27;45855;-65
2023/01/30 09:27:36;;;;;;;;;21.00;18.00;;;;;8.64;70.71;102208.88;5072238;27;45555;-66
2023/01/30 09:30:03;;;;;;;;;20.00;17.00;;;;;8.61;70.77;102197.38;5074244;27;45674;-65
2023/01/30 09:32:28;;;;;;;;;17.00;16.50;;;;;8.63;70.96;102212.44;5071604;27;46310;-66
2023/01/30 09:34:53;;;;;;;;;20.25;17.75;;;;;8.64;71.16;102216.00;5065463;27;45885;-66
2023/01/30 09:37:19;;;;;;;;;15.50;13.75;;;;;8.62;71.38;102217.75;5078404;27;45491;-66
2023/01/30 09:39:44;;;;;;;;;13.00;12.75;;;;;8.65;71.43;102225.75;5065222;28;45730;-66
2023/01/30 09:42:50;;;;;;;;;14.25;12.00;;;;;8.67;71.25;102218.63;5078461;27;49970;-67
2023/01/30 09:45:28;;;;;;;;;19.50;16.25;;;;;8.61;71.34;102197.38;5066878;28;45873;-67
2023/01/30 09:47:56;;;;;;;;;15.25;13.25;;;;;8.70;71.37;102210.66;5078332;27;45437;-67
2023/01/30 09:50:56;;;;;;;;;20.75;16.00;;;;;8.71;71.41;102209.78;5073666;27;45465;-67
2023/01/30 09:53:24;;;;;;;;;16.50;16.00;;;;;8.75;71.64;102205.31;5074465;28;45706;-66
2023/01/30 09:55:50;;;;;;;;;14.75;14.00;;;;;8.76;71.10;102199.13;5059863;28;45671;-66
2023/01/30 09:58:19;;;;;;;;;22.75;15.75;;;;;8.76;71.76;102200.00;5073391;27;45507;-66
2023/01/30 10:00:47;;;;;;;;;13.00;12.00;;;;;8.73;71.68;102189.34;5068299;28;45808;-66
2023/01/30 10:03:18;;;;;;;;;13.75;13.75;;;;;8.82;72.17;102213.31;5069704;27;46123;-67
2023/01/30 10:05:55;;;;;;;;;10.50;10.50;;;;;8.84;71.84;102211.53;5081253;28;45482;-66
2023/01/30 10:08:42;;;;;;;;;14.00;13.75;;;;;8.84;71.77;102224.84;5074363;27;45818;-66
2023/01/30 10:11:37;;;;;;;;;13.50;12.25;;;;;8.80;71.81;102211.53;5077280;27;45644;-65
2023/01/30 10:14:21;;;;;;;;;7.75;6.75;;;;;8.85;72.28;102215.97;5072852;27;45468;-66
2023/01/30 10:17:18;;;;;;;;;15.50;14.00;;;;;8.89;72.17;102219.53;5074057;27;45503;-66
2023/01/30 10:19:56;;;;;;;;;14.00;12.00;;;;;8.88;72.39;102223.06;5072841;27;45370;-66
2023/01/30 10:23:01;;;;;;;;;16.00;13.50;;;;;8.93;72.57;102234.59;5075952;27;45487;-66
2023/01/30 10:25:36;;;;;;;;;14.50;12.75;;;;;8.95;72.60;102245.25;5048690;28;47195;-66
2023/01/30 10:28:14;;;;;;;;;15.50;14.00;;;;;8.96;72.82;102239.91;5072932;27;45410;-66
2023/01/30 10:30:45;;;;;;;;;16.25;11.75;;;;;8.85;72.83;102229.28;5071337;27;45412;-66
2023/01/30 10:33:47;;;;;;;;;12.25;9.50;;;;;8.94;72.86;102240.78;5075817;27;45323;-66
2023/01/30 10:36:21;;;;;;;;;12.00;12.00;;;;;8.94;72.61;102233.72;5062281;27;46188;-65
2023/01/30 10:38:50;;;;;;;;;11.75;11.75;;;;;9.03;72.90;102243.44;5060765;28;45574;-66
2023/01/30 10:41:27;;;;;;;;;13.50;12.00;;;;;9.03;72.41;102231.00;5076227;27;45374;-66
2023/01/30 10:44:08;;;;;;;;;17.75;14.00;;;;;9.08;72.53;102223.91;5083598;27;45339;-66
2023/01/30 10:46:55;;;;;;;;;13.75;12.00;;;;;9.09;72.66;102217.69;5068400;27;46493;-65
2023/01/30 10:49:31;;;;;;;;;12.50;9.75;;;;;9.09;72.97;102207.03;5077360;27;45636;-66
2023/01/30 10:52:26;;;;;;;;;13.75;12.50;;;;;9.13;72.89;102204.38;5072960;27;45499;-65
2023/01/30 10:55:28;;;;;;;;;14.25;13.00;;;;;9.16;72.61;102207.91;5074739;28;45393;-66
2023/01/30 10:58:02;;;;;;;;;10.25;10.25;;;;;9.17;73.08;102195.47;5064945;27;45617;-66
2023/01/30 11:00:41;;;;;;;;;15.00;13.75;;;;;9.19;73.21;102199.91;5077328;28;45331;-66
2023/01/30 11:03:31;;;;;;;;;9.50;8.25;;;;;9.19;73.78;102196.38;5076793;27;45562;-66
2023/01/30 11:06:07;;;;;;;;;12.75;10.00;;;;;9.15;73.52;102198.13;5078976;27;45451;-65
2023/01/30 11:08:34;;;;;;;;;11.50;11.50;;;;;9.16;73.13;102197.25;5064752;27;46062;-66
2023/01/30 11:11:00;;;;;;;;;12.50;11.25;;;;;9.23;73.29;102199.00;5077455;28;45651;-65
2023/01/30 11:13:31;;;;;;;;;9.00;9.00;;;;;9.21;73.22;102189.25;5079146;27;45324;-66
2023/01/30 11:16:05;;;;;;;;;13.50;9.00;;;;;9.30;73.44;102204.31;5063915;27;45401;-66
2023/01/30 11:18:31;;;;;;;;;11.00;10.00;;;;;9.29;73.37;102208.75;5070798;27;45628;-66
2023/01/30 11:21:04;;;;;;;;;12.00;12.00;;;;;9.37;73.07;102216.72;5070466;27;45378;-66
2023/01/30 11:23:33;;;;;;;;;9.75;7.75;;;;;9.39;73.30;102199.81;5079161;27;45562;-66
2023/01/30 11:26:01;;;;;;;;;8.25;8.25;;;;;9.43;72.92;102198.03;5060411;28;45421;-66
2023/01/30 11:28:33;;;;;;;;;10.25;8.75;;;;;9.44;73.21;102198.03;5067299;27;47150;-66
2023/01/30 11:31:00;;;;;;;;;9.00;9.00;;;;;9.44;73.25;102203.34;5069750;27;45520;-66
2023/01/30 11:33:37;;;;;;;;;7.50;7.50;;;;;9.49;73.24;102199.78;5072637;27;45418;-65